createdAt,value
2023-05-05T00:00:04.146Z,101603.09
2023-05-05T00:03:05.776Z,101602.31
2023-05-05T00:06:08.189Z,101600.53
2023-05-05T00:09:09.767Z,101587.16
2023-05-05T00:12:11.364Z,101590.72
2023-05-05T00:15:12.953Z,101584.59
2023-05-05T00:18:17.591Z,101584.59
2023-05-05T00:21:19.183Z,101584.63
2023-05-05T00:24:20.733Z,101563.53
2023-05-05T00:27:22.260Z,101574.25
2023-05-05T00:30:24.374Z,101568.19
2023-05-05T00:33:25.964Z,101568.38
2023-05-05T00:36:28.545Z,101554.28
2023-05-05T00:39:30.612Z,101554.47
2023-05-05T00:42:43.851Z,101546.53
2023-05-05T00:45:47.927Z,101550.28
2023-05-05T00:48:50.450Z,101546.00
2023-05-05T00:51:52.192Z,101547.88
2023-05-05T00:54:54.006Z,101549.75
2023-05-05T00:57:56.928Z,101544.56
2023-05-05T01:00:58.511Z,101533.22
2023-05-05T01:04:00.195Z,101538.69
2023-05-05T01:07:19.589Z,101536.97
2023-05-05T01:10:38.415Z,101526.41
2023-05-05T01:13:52.665Z,101525.75
2023-05-05T01:16:57.963Z,101519.69
2023-05-05T01:20:05.084Z,101516.31
2023-05-05T01:23:08.614Z,101514.69
2023-05-05T01:27:01.053Z,101513.06
2023-05-05T01:30:18.342Z,101508.88
2023-05-05T01:33:26.157Z,101515.25
2023-05-05T01:36:37.265Z,101508.34
2023-05-05T01:39:41.331Z,101510.22
2023-05-05T01:42:44.035Z,101511.22
2023-05-05T01:45:47.243Z,101495.41
2023-05-05T01:48:50.784Z,101488.50
2023-05-05T01:51:53.413Z,101493.00
2023-05-05T01:54:57.589Z,101493.09
2023-05-05T01:58:01.259Z,101502.13
2023-05-05T02:01:04.063Z,101495.25
2023-05-05T02:04:09.763Z,101495.31
2023-05-05T02:07:13.074Z,101498.97
2023-05-05T02:10:15.246Z,101492.03
2023-05-05T02:13:18.909Z,101476.28
2023-05-05T02:16:22.767Z,101486.22
2023-05-05T02:19:38.873Z,101481.94
2023-05-05T02:22:41.074Z,101475.91
2023-05-05T02:25:49.143Z,101467.22
2023-05-05T02:29:30.733Z,101465.56
2023-05-05T02:32:36.118Z,101465.75
2023-05-05T02:35:42.145Z,101464.91
2023-05-05T02:38:46.376Z,101465.91
2023-05-05T02:41:51.287Z,101458.97
2023-05-05T02:44:55.328Z,101465.25
2023-05-05T02:47:57.015Z,101469.78
2023-05-05T02:50:58.522Z,101469.78
2023-05-05T02:54:00.939Z,101462.91
2023-05-05T02:57:04.004Z,101468.25
2023-05-05T03:00:09.602Z,101461.31
2023-05-05T03:03:31.014Z,101460.59
2023-05-05T03:06:39.342Z,101454.56
2023-05-05T03:09:45.839Z,101452.91
2023-05-05T03:12:55.810Z,101454.84
2023-05-05T03:15:58.696Z,101446.13
2023-05-05T03:19:02.605Z,101467.44
2023-05-05T03:22:05.014Z,101453.41
2023-05-05T03:25:06.856Z,101460.63
2023-05-05T03:28:08.436Z,101445.72
2023-05-05T03:31:10.329Z,101444.94
2023-05-05T03:34:11.911Z,101438.88
2023-05-05T03:37:13.435Z,101446.97
2023-05-05T03:40:15.074Z,101439.19
2023-05-05T03:43:16.851Z,101424.19
2023-05-05T03:46:18.519Z,101430.44
2023-05-05T03:49:20.135Z,101423.53
2023-05-05T03:52:21.704Z,101419.19
2023-05-05T03:55:23.233Z,101433.25
2023-05-05T03:58:24.855Z,101435.91
2023-05-05T04:01:26.467Z,101435.91
2023-05-05T04:04:28.172Z,101432.44
2023-05-05T04:07:29.889Z,101434.22
2023-05-05T04:10:31.598Z,101437.72
2023-05-05T04:13:33.185Z,101437.72
2023-05-05T04:16:34.745Z,101434.13
2023-05-05T04:19:36.295Z,101446.38
2023-05-05T04:22:37.841Z,101440.16
2023-05-05T04:25:39.396Z,101438.31
2023-05-05T04:28:42.063Z,101430.28
2023-05-05T04:31:44.172Z,101431.94
2023-05-05T04:34:45.792Z,101428.38
2023-05-05T04:37:47.374Z,101423.84
2023-05-05T04:40:48.913Z,101422.88
2023-05-05T04:43:50.521Z,101439.56
2023-05-05T04:46:52.066Z,101448.28
2023-05-05T04:49:56.720Z,101434.03
2023-05-05T04:52:58.245Z,101431.34
2023-05-05T04:56:01.345Z,101420.63
2023-05-05T04:59:02.919Z,101427.56
2023-05-05T05:02:04.618Z,101434.53
2023-05-05T05:05:06.813Z,101432.66
2023-05-05T05:08:08.359Z,101424.63
2023-05-05T05:11:09.980Z,101430.72
2023-05-05T05:14:11.507Z,101421.75
2023-05-05T05:17:13.176Z,101426.94
2023-05-05T05:20:14.780Z,101432.16
2023-05-05T05:23:16.338Z,101438.25
2023-05-05T05:26:17.959Z,101438.91
2023-05-05T05:29:20.529Z,101445.94
2023-05-05T05:32:22.429Z,101441.50
2023-05-05T05:35:24.005Z,101433.53
2023-05-05T05:38:25.613Z,101422.00
2023-05-05T05:41:27.092Z,101420.00
2023-05-05T05:44:28.637Z,101414.03
2023-05-05T05:47:30.240Z,101426.81
2023-05-05T05:50:31.818Z,101421.78
2023-05-05T05:53:33.684Z,101424.94
2023-05-05T05:56:35.300Z,101442.22
2023-05-05T05:59:36.870Z,101447.06
2023-05-05T06:02:38.860Z,101445.53
2023-05-05T06:05:40.522Z,101441.50
2023-05-05T06:08:42.079Z,101441.03
2023-05-05T06:11:43.646Z,101440.69
2023-05-05T06:14:45.207Z,101443.91
2023-05-05T06:17:46.856Z,101456.19
2023-05-05T06:20:52.466Z,101465.81
2023-05-05T06:23:54.215Z,101460.47
2023-05-05T06:26:55.763Z,101462.19
2023-05-05T06:29:57.368Z,101463.91
2023-05-05T06:32:59.048Z,101468.22
2023-05-05T06:36:00.619Z,101478.69
2023-05-05T06:39:02.134Z,101479.38
2023-05-05T06:42:04.340Z,101487.28
2023-05-05T06:45:06.407Z,101479.31
2023-05-05T06:48:08.418Z,101485.47
2023-05-05T06:51:10.119Z,101490.78
2023-05-05T06:54:11.695Z,101501.34
2023-05-05T06:57:13.265Z,101511.84
2023-05-05T07:00:16.893Z,101542.78
2023-05-05T07:03:18.739Z,101578.91
2023-05-05T07:06:20.413Z,101607.88
2023-05-05T07:09:21.993Z,101624.78
2023-05-05T07:12:23.809Z,101609.38
2023-05-05T07:15:29.350Z,101615.31
2023-05-05T07:18:31.356Z,101626.72
2023-05-05T07:21:34.155Z,101630.00
2023-05-05T07:24:35.725Z,101620.97
2023-05-05T07:27:37.690Z,101599.66
2023-05-05T07:30:39.239Z,101589.25
2023-05-05T07:33:40.818Z,101585.03
2023-05-05T07:36:42.601Z,101574.53
2023-05-05T07:39:44.207Z,101558.78
2023-05-05T07:42:47.481Z,101544.66
2023-05-05T07:45:49.077Z,101538.50
2023-05-05T07:48:50.640Z,101530.53
2023-05-05T07:51:52.974Z,101523.31
2023-05-05T07:54:54.501Z,101519.66
2023-05-05T07:57:56.069Z,101498.16
2023-05-05T08:00:57.696Z,101473.16
2023-05-05T08:03:59.511Z,101471.09
2023-05-05T08:07:01.122Z,101442.34
2023-05-05T08:10:02.701Z,101427.84
2023-05-05T08:13:04.401Z,101419.59
2023-05-05T08:16:06.470Z,101435.31
2023-05-05T08:19:17.611Z,101442.34
2023-05-05T08:22:23.110Z,101463.56
2023-05-05T08:25:27.452Z,101481.94
2023-05-05T08:28:30.033Z,101470.09
2023-05-05T08:31:39.742Z,101466.06
2023-05-05T08:34:41.330Z,101468.31
2023-05-05T08:37:42.982Z,101466.13
2023-05-05T08:40:44.962Z,101475.59
2023-05-05T08:43:48.203Z,101498.47
2023-05-05T08:46:50.577Z,101495.53
2023-05-05T08:49:53.904Z,101491.66
2023-05-05T08:53:15.810Z,101493.03
2023-05-05T08:56:19.413Z,101496.13
2023-05-05T08:59:25.129Z,101496.53
2023-05-05T09:02:29.920Z,101509.25
2023-05-05T09:05:31.880Z,101508.53
2023-05-05T09:08:34.168Z,101516.56
2023-05-05T09:11:37.541Z,101522.91
2023-05-05T09:14:39.112Z,101520.44
2023-05-05T09:17:41.905Z,101526.84
2023-05-05T09:20:43.495Z,101534.91
2023-05-05T09:24:09.439Z,101540.25
2023-05-05T09:27:31.661Z,101524.44
2023-05-05T09:30:34.747Z,101536.53
2023-05-05T09:33:36.504Z,101521.00
2023-05-05T09:36:48.878Z,101521.66
2023-05-05T09:39:54.729Z,101512.50
2023-05-05T09:43:01.864Z,101502.97
2023-05-05T09:46:08.216Z,101493.59
2023-05-05T09:49:20.338Z,101491.28
2023-05-05T09:52:21.938Z,101485.34
2023-05-05T09:55:24.272Z,101474.25
2023-05-05T09:58:30.909Z,101468.78
2023-05-05T10:01:32.631Z,101455.06
2023-05-05T10:04:34.275Z,101469.75
2023-05-05T10:07:37.130Z,101467.66
2023-05-05T10:10:51.534Z,101468.50
2023-05-05T10:13:53.557Z,101465.00
2023-05-05T10:16:55.654Z,101475.78
2023-05-05T10:19:59.847Z,101469.38
2023-05-05T10:23:05.077Z,101468.09
2023-05-05T10:26:10.314Z,101458.84
2023-05-05T10:29:22.681Z,101463.06
2023-05-05T10:35:40.283Z,101478.00
2023-05-05T10:38:43.526Z,101484.69
2023-05-05T10:41:46.313Z,101480.50
2023-05-05T10:44:49.145Z,101486.56
2023-05-05T10:47:51.849Z,101488.31
2023-05-05T10:51:27.471Z,101487.47
2023-05-05T10:54:47.838Z,101495.78
2023-05-05T10:57:53.328Z,101493.59
2023-05-05T11:00:54.955Z,101501.28
2023-05-05T11:04:18.266Z,101499.38
2023-05-05T11:07:23.841Z,101502.56
2023-05-05T11:10:26.403Z,101495.63
2023-05-05T11:13:28.403Z,101497.47
2023-05-05T11:16:49.881Z,101485.75
2023-05-05T11:19:52.544Z,101482.59
2023-05-05T11:23:03.252Z,101480.03
2023-05-05T11:26:04.948Z,101471.81
2023-05-05T11:29:06.662Z,101466.59
2023-05-05T11:32:12.775Z,101469.13
2023-05-05T11:35:15.412Z,101471.72
2023-05-05T11:38:20.942Z,101472.44
2023-05-05T11:41:34.374Z,101473.06
2023-05-05T11:44:36.214Z,101465.75
2023-05-05T11:47:37.929Z,101471.69
2023-05-05T11:50:40.238Z,101477.84
2023-05-05T11:53:46.709Z,101472.94
2023-05-05T11:56:54.909Z,101467.06
2023-05-05T11:59:59.222Z,101467.53
2023-05-05T12:03:01.128Z,101465.34
2023-05-05T12:06:06.841Z,101464.84
2023-05-05T12:09:16.039Z,101460.47
2023-05-05T12:12:18.830Z,101452.72
2023-05-05T12:15:31.068Z,101457.22
2023-05-05T12:18:32.720Z,101448.53
2023-05-05T12:21:35.407Z,101444.09
2023-05-05T12:24:37.017Z,101457.31
2023-05-05T12:27:38.981Z,101447.63
2023-05-05T12:30:41.208Z,101438.53
2023-05-05T12:33:43.600Z,101438.59
2023-05-05T12:36:45.428Z,101442.63
2023-05-05T12:39:47.118Z,101440.84
2023-05-05T12:42:49.246Z,101436.53
2023-05-05T12:46:10.858Z,101447.47
2023-05-05T12:49:12.827Z,101445.03
2023-05-05T12:52:16.331Z,101438.66
2023-05-05T12:55:19.749Z,101441.13
2023-05-05T12:58:21.661Z,101424.91
2023-05-05T13:01:23.224Z,101421.38
2023-05-05T13:04:26.328Z,101419.56
2023-05-05T13:07:27.888Z,101431.50
2023-05-05T13:10:31.228Z,101419.78
2023-05-05T13:13:32.835Z,101422.47
2023-05-05T13:16:34.518Z,101410.94
2023-05-05T13:19:41.809Z,101404.72
2023-05-05T13:22:43.413Z,101406.59
2023-05-05T13:25:45.177Z,101400.22
2023-05-05T13:28:46.871Z,101404.16
2023-05-05T13:31:48.855Z,101380.44
2023-05-05T13:34:50.928Z,101383.00
2023-05-05T13:37:52.471Z,101381.28
2023-05-05T13:40:54.120Z,101369.41
2023-05-05T13:43:56.584Z,101358.75
2023-05-05T13:46:58.220Z,101360.59
2023-05-05T13:49:59.784Z,101353.34
2023-05-05T13:53:01.442Z,101333.78
2023-05-05T13:59:04.928Z,101318.84
2023-05-05T14:02:07.735Z,101320.25
2023-05-05T14:05:10.133Z,101318.13
2023-05-05T14:08:13.228Z,101318.66
2023-05-05T14:11:17.140Z,101319.94
2023-05-05T14:14:19.693Z,101316.81
2023-05-05T14:17:21.977Z,101319.06
2023-05-05T14:20:23.826Z,101314.53
2023-05-05T14:23:25.405Z,101302.06
2023-05-05T14:26:27.576Z,101300.38
2023-05-05T14:29:29.089Z,101300.38
2023-05-05T14:32:30.932Z,101298.38
2023-05-05T14:35:32.570Z,101301.09
2023-05-05T14:38:34.263Z,101302.06
2023-05-05T14:41:35.953Z,101308.44
2023-05-05T14:44:37.488Z,101297.69
2023-05-05T14:47:39.078Z,101290.72
2023-05-05T14:50:42.273Z,101284.34
2023-05-05T14:53:43.886Z,101283.09
2023-05-05T14:56:45.491Z,101289.19
2023-05-05T14:59:51.253Z,101286.06
2023-05-05T15:02:52.826Z,101291.88
2023-05-05T15:05:54.457Z,101289.91
2023-05-05T15:08:56.027Z,101292.59
2023-05-05T15:11:57.592Z,101289.47
2023-05-05T15:14:59.105Z,101281.97
2023-05-05T15:18:00.689Z,101279.81
2023-05-05T15:21:02.297Z,101279.78
2023-05-05T15:24:04.924Z,101266.72
2023-05-05T15:27:06.698Z,101276.19
2023-05-05T15:30:08.821Z,101279.03
2023-05-05T15:33:10.420Z,101282.72
2023-05-05T15:36:12.352Z,101281.03
2023-05-05T15:39:13.872Z,101283.97
2023-05-05T15:42:15.606Z,101285.22
2023-05-05T15:45:17.531Z,101286.66
2023-05-05T15:48:19.067Z,101304.84
2023-05-05T15:51:20.671Z,101317.72
2023-05-05T15:54:22.485Z,101294.75
2023-05-05T15:57:24.146Z,101294.19
2023-05-05T16:00:25.824Z,101304.38
2023-05-05T16:03:27.569Z,101304.63
2023-05-05T16:06:29.512Z,101302.34
2023-05-05T16:09:31.059Z,101301.16
2023-05-05T16:12:32.645Z,101301.56
2023-05-05T16:15:35.694Z,101294.94
2023-05-05T16:18:37.263Z,101301.28
2023-05-05T16:21:38.874Z,101300.84
2023-05-05T16:24:41.973Z,101306.91
2023-05-05T16:27:44.786Z,101305.69
2023-05-05T16:30:46.382Z,101311.72
2023-05-05T16:33:48.018Z,101323.03
2023-05-05T16:36:49.552Z,101315.59
2023-05-05T16:39:51.107Z,101319.81
2023-05-05T16:42:52.772Z,101318.59
2023-05-05T16:45:54.343Z,101322.75
2023-05-05T16:48:56.364Z,101323.13
2023-05-05T16:51:58.308Z,101333.16
2023-05-05T16:54:59.921Z,101341.38
2023-05-05T16:58:01.608Z,101351.13
2023-05-05T17:01:04.119Z,101361.75
2023-05-05T17:04:05.723Z,101372.03
2023-05-05T17:07:07.581Z,101381.09
2023-05-05T17:10:09.966Z,101376.13
2023-05-05T17:13:12.896Z,101376.63
2023-05-05T17:16:14.616Z,101373.94
2023-05-05T17:19:16.734Z,101377.81
2023-05-05T17:22:18.276Z,101376.09
2023-05-05T17:25:20.077Z,101386.81
2023-05-05T17:28:21.657Z,101385.94
2023-05-05T17:31:23.199Z,101397.75
2023-05-05T17:34:24.817Z,101399.72
2023-05-05T17:37:26.389Z,101402.72
2023-05-05T17:40:28.137Z,101400.41
2023-05-05T17:43:29.789Z,101398.81
2023-05-05T17:46:31.760Z,101399.78
2023-05-05T17:49:34.813Z,101400.75
2023-05-05T17:52:36.694Z,101389.81
2023-05-05T17:55:38.274Z,101388.84
2023-05-05T17:58:39.844Z,101388.72
2023-05-05T18:01:41.547Z,101387.84
2023-05-05T18:04:43.460Z,101378.94
2023-05-05T18:07:45.014Z,101378.13
2023-05-05T18:10:46.725Z,101374.44
2023-05-05T18:13:48.248Z,101359.34
2023-05-05T18:16:52.324Z,101369.22
2023-05-05T18:19:54.005Z,101370.16
2023-05-05T18:22:55.598Z,101359.44
2023-05-05T18:25:57.101Z,101356.88
2023-05-05T18:28:58.626Z,101357.97
2023-05-05T18:32:00.190Z,101349.22
2023-05-05T18:35:01.797Z,101342.84
2023-05-05T18:38:03.840Z,101327.41
2023-05-05T18:41:05.435Z,101326.81
2023-05-05T18:44:07.055Z,101317.41
2023-05-05T18:47:08.897Z,101322.97
2023-05-05T18:50:10.614Z,101326.31
2023-05-05T18:53:13.656Z,101321.53
2023-05-05T18:56:15.250Z,101320.78
2023-05-05T18:59:16.813Z,101326.28
2023-05-05T19:02:18.722Z,101322.34
2023-05-05T19:05:20.350Z,101318.50
2023-05-05T19:08:22.578Z,101314.47
2023-05-05T19:11:24.423Z,101326.00
2023-05-05T19:14:26.068Z,101328.06
2023-05-05T19:17:27.761Z,101322.38
2023-05-05T19:20:31.723Z,101319.13
2023-05-05T19:23:33.443Z,101318.28
2023-05-05T19:26:35.387Z,101324.47
2023-05-05T19:29:36.958Z,101330.56
2023-05-05T19:32:38.560Z,101325.22
2023-05-05T19:35:40.100Z,101327.78
2023-05-05T19:38:44.514Z,101323.13
2023-05-05T19:41:46.201Z,101332.75
2023-05-05T19:44:47.741Z,101330.78
2023-05-05T19:47:49.289Z,101324.56
2023-05-05T19:50:51.172Z,101329.75
2023-05-05T19:53:53.660Z,101334.75
2023-05-05T19:56:57.180Z,101337.72
2023-05-05T19:59:58.970Z,101337.91
2023-05-05T20:03:01.310Z,101340.69
2023-05-05T20:06:03.071Z,101344.31
2023-05-05T20:09:05.219Z,101343.47
2023-05-05T20:12:07.148Z,101344.22
2023-05-05T20:15:10.073Z,101346.78
2023-05-05T20:18:11.591Z,101346.69
2023-05-05T20:21:13.406Z,101352.88
2023-05-05T20:24:15.253Z,101359.81
2023-05-05T20:27:16.875Z,101359.00
2023-05-05T20:30:18.406Z,101354.59
2023-05-05T20:33:20.165Z,101351.19
2023-05-05T20:36:22.930Z,101350.19
2023-05-05T20:39:25.035Z,101355.66
2023-05-05T20:42:27.804Z,101353.84
2023-05-05T20:45:31.762Z,101356.50
2023-05-05T20:48:33.318Z,101355.66
2023-05-05T20:51:35.159Z,101357.38
2023-05-05T20:54:36.997Z,101352.97
2023-05-05T20:57:38.723Z,101348.09
2023-05-05T21:00:40.356Z,101357.28
2023-05-05T21:03:41.929Z,101362.03
2023-05-05T21:06:44.891Z,101352.84
2023-05-05T21:09:46.820Z,101356.28
2023-05-05T21:12:48.508Z,101354.34
2023-05-05T21:15:50.489Z,101355.09
2023-05-05T21:18:52.078Z,101353.94
2023-05-05T21:21:53.797Z,101348.31
2023-05-05T21:25:13.814Z,101350.34
2023-05-05T21:28:15.399Z,101350.81
2023-05-05T21:34:21.426Z,101348.66
2023-05-05T21:37:22.941Z,101351.53
2023-05-05T21:40:24.519Z,101356.03
2023-05-05T21:43:26.715Z,101349.72
2023-05-05T21:46:28.444Z,101356.56
2023-05-05T21:49:30.538Z,101353.16
2023-05-05T21:52:32.282Z,101347.53
2023-05-05T21:55:33.840Z,101352.47
2023-05-05T21:58:35.481Z,101348.19
2023-05-05T22:01:37.232Z,101351.81
2023-05-05T22:04:38.856Z,101356.44
2023-05-05T22:07:40.752Z,101357.31
2023-05-05T22:10:42.347Z,101350.81
2023-05-05T22:13:44.055Z,101355.72
2023-05-05T22:16:45.891Z,101358.25
2023-05-05T22:19:47.505Z,101355.91
2023-05-05T22:22:49.054Z,101357.84
2023-05-05T22:25:50.608Z,101348.44
2023-05-05T22:28:52.132Z,101350.03
2023-05-05T22:31:53.814Z,101344.16
2023-05-05T22:34:55.473Z,101346.94
2023-05-05T22:37:57.038Z,101354.03
2023-05-05T22:40:58.546Z,101355.09
2023-05-05T22:44:00.208Z,101357.31
2023-05-05T22:47:01.784Z,101363.84
2023-05-05T22:50:03.520Z,101357.63
2023-05-05T22:53:05.076Z,101360.22
2023-05-05T22:56:06.740Z,101361.91
2023-05-05T22:59:08.355Z,101363.53
2023-05-05T23:02:10.255Z,101365.34
2023-05-05T23:05:12.057Z,101365.34
2023-05-05T23:08:13.714Z,101366.19
2023-05-05T23:11:15.577Z,101367.06
2023-05-05T23:14:19.398Z,101366.19
2023-05-05T23:17:21.156Z,101362.56
2023-05-05T23:20:22.828Z,101371.41
2023-05-05T23:23:24.661Z,101363.41
2023-05-05T23:26:26.305Z,101357.22
2023-05-05T23:29:28.286Z,101368.13
2023-05-05T23:32:29.839Z,101366.63
2023-05-05T23:35:31.432Z,101368.53
2023-05-05T23:38:32.965Z,101365.13
2023-05-05T23:41:34.535Z,101372.91
2023-05-05T23:44:36.063Z,101374.66
2023-05-05T23:47:38.104Z,101372.19
2023-05-05T23:50:39.680Z,101364.31
2023-05-05T23:53:41.272Z,101366.19
2023-05-05T23:56:42.894Z,101367.19
2023-05-05T23:59:44.760Z,101371.72
